ムルマンスク の空港の天気 - METARとTAF

ムルマンスク空港 ( ULMM / MMK ) - ロシア ムルマンスク
飛行場実況気象(Metar)
観測時間03/29 00:00 MSK (03/28 21:00 UTC)
風向・風速西南西 2m/s
視程10km以上
天気現象
全天の4割程度の雲 雲底高度 910m
気温-8℃
湿度67%
気圧1000hPa
METARULMM 282100Z 24002MPS 9999 SCT030 M08/M13 Q1000 R31/450151 NOSIG RMK QFE742
過去の天気等 Google飛行場航空写真 Wunderground天気予報

過去48時間のMETAR

飛行場予報(TAF)
発表時間: 3/28 22:51 MSK (3/28 19:51 UTC)
予報対象時間: 29日0時 MSK ~ 30日0時 MSK
風向・風速西 4m/s 瞬間風速 11m/s
視程5,000m
天気現象弱いしゅう雪
全天の8割程度の積乱雲 雲底高度 340m
29日0時 MSK ~ 29日24時 MSK に一時的に
風向・風速北北西 9m/s 瞬間風速 17m/s
視程400m
天気現象強いしゅう雪 高い地吹雪
全天を覆う雲 鉛直視程 60m
TAF ULMM 281951Z 2821/2921 28004G11MPS 5000 -SHSN BKN011CB
TEMPO 2821/2921 33009G17MPS 0400 +SHSN BLSN VV002